createdAt,value
2019-04-21T00:01:05.045Z,7.50
2019-04-21T00:03:35.547Z,7.50
2019-04-21T00:06:22.393Z,7.40
2019-04-21T00:08:48.526Z,7.10
2019-04-21T00:11:22.628Z,7.10
2019-04-21T00:13:42.504Z,6.90
2019-04-21T00:16:06.750Z,6.80
2019-04-21T00:18:40.883Z,6.80
2019-04-21T00:21:13.346Z,6.70
2019-04-21T00:23:49.904Z,6.70
2019-04-21T00:26:22.505Z,6.70
2019-04-21T00:29:01.951Z,6.70
2019-04-21T00:31:22.636Z,6.70
2019-04-21T00:33:34.300Z,6.60
2019-04-21T00:36:11.262Z,6.60
2019-04-21T00:38:59.152Z,6.50
2019-04-21T00:41:26.391Z,6.50
2019-04-21T00:43:47.942Z,6.40
2019-04-21T00:46:12.320Z,6.50
2019-04-21T00:48:53.541Z,6.50
2019-04-21T00:51:36.024Z,6.40
2019-04-21T00:54:04.052Z,6.40
2019-04-21T00:56:34.376Z,6.40
2019-04-21T00:58:59.300Z,6.40
2019-04-21T01:01:26.762Z,6.40
2019-04-21T01:04:05.087Z,6.40
2019-04-21T01:06:38.073Z,6.40
2019-04-21T01:08:59.435Z,6.40
2019-04-21T01:11:35.002Z,6.30
2019-04-21T01:14:05.280Z,6.20
2019-04-21T01:16:34.126Z,6.10
2019-04-21T01:19:02.178Z,6.00
2019-04-21T01:21:14.592Z,5.90
2019-04-21T01:23:44.568Z,5.80
2019-04-21T01:26:22.586Z,5.70
2019-04-21T01:29:04.411Z,5.60
2019-04-21T01:31:30.590Z,5.60
2019-04-21T01:34:04.728Z,5.50
2019-04-21T01:36:33.676Z,5.50
2019-04-21T01:39:08.403Z,5.50
2019-04-21T01:44:02.544Z,5.50
2019-04-21T01:46:30.871Z,5.40
2019-04-21T01:48:57.067Z,5.40
2019-04-21T01:51:36.979Z,5.40
2019-04-21T01:54:15.999Z,5.40
2019-04-21T01:56:40.159Z,5.40
2019-04-21T01:58:59.215Z,5.40
2019-04-21T02:01:38.837Z,5.40
2019-04-21T02:04:22.758Z,5.50
2019-04-21T02:06:39.133Z,5.50
2019-04-21T02:09:10.091Z,5.50
2019-04-21T02:11:44.347Z,5.60
2019-04-21T02:14:19.658Z,5.60
2019-04-21T02:16:40.667Z,5.60
2019-04-21T02:19:04.436Z,5.60
2019-04-21T02:21:37.030Z,5.70
2019-04-21T02:24:20.882Z,5.90
2019-04-21T02:26:42.979Z,5.90
2019-04-21T02:29:17.052Z,6.00
2019-04-21T02:32:00.388Z,6.10
2019-04-21T02:34:16.909Z,6.10
2019-04-21T02:39:18.032Z,6.20
2019-04-21T02:51:52.815Z,5.50
2019-04-21T02:57:01.283Z,5.10
2019-04-21T02:59:37.710Z,5.00
2019-04-21T03:02:25.757Z,4.90
2019-04-21T03:09:44.390Z,4.80
2019-04-21T03:12:17.967Z,4.80
2019-04-21T03:14:56.629Z,4.80
2019-04-21T03:17:23.948Z,4.80
2019-04-21T03:19:55.483Z,4.80
2019-04-21T03:22:22.588Z,4.80
2019-04-21T03:25:04.422Z,4.80
2019-04-21T03:27:46.441Z,4.70
2019-04-21T03:35:25.988Z,5.00
2019-04-21T03:39:50.334Z,5.20
2019-04-21T03:42:25.632Z,5.10
2019-04-21T03:47:24.916Z,5.20
2019-04-21T03:50:01.889Z,5.10
2019-04-21T04:00:42.668Z,5.00
2019-04-21T04:03:35.360Z,5.00
2019-04-21T04:08:47.545Z,5.50
2019-04-21T04:11:04.646Z,5.50
2019-04-21T04:13:44.868Z,5.50
2019-04-21T04:18:39.079Z,5.70
2019-04-21T04:20:53.443Z,5.70
2019-04-21T04:23:34.020Z,6.00
2019-04-21T04:25:59.481Z,6.50
2019-04-21T04:28:36.270Z,7.00
2019-04-21T04:30:52.018Z,7.50
2019-04-21T04:36:05.943Z,8.10
2019-04-21T04:38:36.144Z,8.50
2019-04-21T04:41:29.909Z,8.70
2019-04-21T04:43:48.019Z,9.10
2019-04-21T04:46:41.573Z,9.20
2019-04-21T04:48:59.416Z,9.00
2019-04-21T04:51:12.221Z,8.70
2019-04-21T04:53:47.270Z,8.50
2019-04-21T04:56:20.573Z,8.40
2019-04-21T04:59:19.649Z,8.60
2019-04-21T05:01:23.237Z,9.10
2019-04-21T05:03:52.585Z,9.80
2019-04-21T05:11:40.298Z,11.20
2019-04-21T05:14:02.636Z,11.70
2019-04-21T05:16:36.762Z,12.30
2019-04-21T05:19:04.517Z,12.90
2019-04-21T05:21:29.750Z,13.20
2019-04-21T05:23:47.144Z,13.50
2019-04-21T05:26:13.785Z,13.90
2019-04-21T05:28:42.050Z,14.20
2019-04-21T05:31:28.488Z,14.10
2019-04-21T05:33:53.037Z,14.30
2019-04-21T05:36:38.159Z,14.70
2019-04-21T05:39:24.836Z,15.30
2019-04-21T05:41:42.858Z,15.70
2019-04-21T05:44:35.547Z,15.90
2019-04-21T05:47:07.860Z,16.10
2019-04-21T05:49:29.339Z,16.60
2019-04-21T05:51:58.450Z,17.20
2019-04-21T05:57:06.603Z,17.50
2019-04-21T05:59:35.808Z,17.40
2019-04-21T06:02:15.213Z,18.00
2019-04-21T06:04:46.903Z,18.50
2019-04-21T06:07:13.934Z,18.80
2019-04-21T06:09:37.216Z,19.10
2019-04-21T06:12:02.966Z,18.80
2019-04-21T06:14:37.229Z,18.20
2019-04-21T06:17:11.319Z,17.90
2019-04-21T06:19:43.532Z,18.20
2019-04-21T06:22:03.311Z,18.10
2019-04-21T06:24:52.265Z,18.80
2019-04-21T06:27:08.245Z,19.50
2019-04-21T06:29:37.790Z,20.00
2019-04-21T06:32:21.914Z,19.60
2019-04-21T06:34:49.600Z,20.10
2019-04-21T06:37:35.987Z,20.40
2019-04-21T06:40:01.912Z,20.40
2019-04-21T06:42:28.408Z,20.70
2019-04-21T06:44:54.557Z,20.70
2019-04-21T06:47:28.843Z,21.70
2019-04-21T06:49:47.453Z,21.80
2019-04-21T06:52:29.907Z,21.90
2019-04-21T06:54:46.896Z,21.20
2019-04-21T06:57:17.008Z,20.90
2019-04-21T06:59:44.821Z,21.30
2019-04-21T07:02:31.786Z,22.00
2019-04-21T07:04:50.496Z,22.20
2019-04-21T07:07:12.930Z,22.60
2019-04-21T07:10:01.419Z,22.80
2019-04-21T07:12:14.999Z,22.70
2019-04-21T07:14:48.261Z,23.20
2019-04-21T07:17:24.336Z,23.30
2019-04-21T07:19:48.408Z,23.20
2019-04-21T07:22:24.944Z,23.20
2019-04-21T07:24:47.957Z,23.70
2019-04-21T07:27:22.290Z,24.20
2019-04-21T07:29:56.558Z,24.60
2019-04-21T07:32:20.771Z,25.60
2019-04-21T07:34:51.566Z,26.50
2019-04-21T07:37:20.785Z,27.10
2019-04-21T07:39:49.974Z,27.30
2019-04-21T07:42:19.847Z,26.70
2019-04-21T07:44:46.333Z,26.10
2019-04-21T07:47:22.326Z,26.10
2019-04-21T07:50:00.463Z,26.70
2019-04-21T07:52:48.988Z,26.00
2019-04-21T07:57:32.039Z,25.80
2019-04-21T08:00:15.998Z,26.00
2019-04-21T08:02:38.621Z,26.70
2019-04-21T08:05:19.955Z,27.20
2019-04-21T08:07:46.232Z,27.50
2019-04-21T08:10:03.461Z,26.70
2019-04-21T08:12:30.671Z,27.10
2019-04-21T08:15:14.287Z,27.30
2019-04-21T08:17:36.596Z,28.20
2019-04-21T08:19:59.144Z,28.60
2019-04-21T08:22:44.929Z,28.60
2019-04-21T08:25:03.339Z,29.20
2019-04-21T08:27:41.024Z,28.90
2019-04-21T08:30:05.098Z,28.50
2019-04-21T08:32:46.226Z,28.80
2019-04-21T08:35:48.471Z,28.30
2019-04-21T08:37:39.576Z,28.90
2019-04-21T08:40:17.398Z,29.30
2019-04-21T08:42:38.731Z,29.70
2019-04-21T08:45:12.660Z,29.40
2019-04-21T08:47:40.224Z,29.00
2019-04-21T08:50:09.620Z,29.20
2019-04-21T08:52:43.041Z,29.00
2019-04-21T08:55:11.149Z,28.80
2019-04-21T08:58:00.832Z,29.40
2019-04-21T09:00:36.857Z,28.90
2019-04-21T09:03:06.685Z,28.40
2019-04-21T09:05:39.364Z,28.90
2019-04-21T09:08:03.847Z,28.90
2019-04-21T09:10:34.744Z,30.00
2019-04-21T09:13:04.269Z,30.30
2019-04-21T09:15:35.143Z,30.00
2019-04-21T09:17:58.033Z,30.30
2019-04-21T09:20:40.201Z,30.00
2019-04-21T09:23:11.778Z,29.40
2019-04-21T09:25:41.336Z,30.20
2019-04-21T09:28:08.064Z,30.30
2019-04-21T09:30:17.540Z,30.60
2019-04-21T09:32:51.652Z,30.20
2019-04-21T09:35:18.347Z,30.20
2019-04-21T09:37:53.407Z,31.00
2019-04-21T09:40:20.507Z,30.80
2019-04-21T09:42:54.172Z,31.00
2019-04-21T09:45:17.623Z,30.90
2019-04-21T09:47:55.607Z,31.30
2019-04-21T09:50:17.382Z,30.70
2019-04-21T09:52:53.032Z,31.30
2019-04-21T09:55:19.633Z,31.90
2019-04-21T09:57:52.194Z,31.90
2019-04-21T10:00:21.135Z,31.50
2019-04-21T10:02:56.720Z,30.80
2019-04-21T10:05:16.882Z,30.90
2019-04-21T10:07:44.690Z,30.30
2019-04-21T10:10:13.094Z,30.60
2019-04-21T10:12:41.371Z,30.20
2019-04-21T10:15:10.650Z,30.40
2019-04-21T10:17:41.792Z,30.50
2019-04-21T10:20:11.693Z,30.50
2019-04-21T10:22:41.375Z,30.20
2019-04-21T10:25:10.518Z,28.90
2019-04-21T10:27:39.278Z,28.60
2019-04-21T10:30:09.947Z,28.90
2019-04-21T10:32:38.675Z,29.20
2019-04-21T10:35:07.482Z,29.50
2019-04-21T10:37:47.266Z,29.80
2019-04-21T10:40:09.691Z,29.90
2019-04-21T10:42:42.818Z,30.20
2019-04-21T10:45:13.072Z,30.70
2019-04-21T10:47:41.348Z,30.20
2019-04-21T10:50:11.271Z,30.70
2019-04-21T10:53:00.711Z,30.30
2019-04-21T10:55:45.091Z,30.40
2019-04-21T10:58:14.002Z,30.10
2019-04-21T11:00:48.440Z,29.10
2019-04-21T11:03:35.136Z,27.90
2019-04-21T11:06:06.544Z,27.20
2019-04-21T11:08:40.931Z,26.80
2019-04-21T11:11:05.725Z,26.70
2019-04-21T11:13:36.949Z,26.20
2019-04-21T11:16:05.571Z,25.50
2019-04-21T11:18:34.024Z,25.50
2019-04-21T11:21:02.996Z,25.90
2019-04-21T11:23:31.462Z,26.40
2019-04-21T11:26:00.156Z,25.90
2019-04-21T11:28:31.206Z,24.80
2019-04-21T11:31:00.605Z,25.10
2019-04-21T11:33:29.212Z,25.30
2019-04-21T11:35:57.671Z,25.50
2019-04-21T11:38:30.488Z,25.30
2019-04-21T11:40:58.148Z,25.30
2019-04-21T11:43:26.659Z,25.00
2019-04-21T11:45:55.003Z,25.10
2019-04-21T11:48:28.317Z,25.10
2019-04-21T11:50:57.269Z,25.00
2019-04-21T11:53:26.761Z,24.50
2019-04-21T11:55:55.606Z,24.10
2019-04-21T11:58:26.215Z,23.80
2019-04-21T12:00:55.787Z,23.30
2019-04-21T12:03:24.154Z,23.00
2019-04-21T12:05:53.198Z,22.60
2019-04-21T12:08:29.929Z,22.60
2019-04-21T12:10:51.799Z,22.30
2019-04-21T12:13:20.403Z,22.20
2019-04-21T12:15:49.243Z,21.90
2019-04-21T12:18:17.823Z,21.60
2019-04-21T12:20:47.263Z,21.50
2019-04-21T12:23:16.333Z,21.10
2019-04-21T12:25:49.438Z,21.10
2019-04-21T12:28:18.042Z,21.10
2019-04-21T12:30:49.292Z,20.80
2019-04-21T12:33:38.145Z,20.50
2019-04-21T12:36:07.513Z,20.20
2019-04-21T12:38:46.580Z,19.60
2019-04-21T12:41:06.541Z,19.60
2019-04-21T12:43:35.041Z,19.50
2019-04-21T12:46:04.207Z,19.70
2019-04-21T12:48:33.643Z,19.80
2019-04-21T12:51:03.761Z,19.90
2019-04-21T12:53:34.020Z,19.70
2019-04-21T12:56:02.737Z,19.80
2019-04-21T12:58:31.170Z,19.80
2019-04-21T13:01:00.826Z,19.90
2019-04-21T13:03:30.378Z,19.80
2019-04-21T13:05:58.906Z,19.70
2019-04-21T13:08:27.417Z,19.90
2019-04-21T13:10:56.088Z,19.80
2019-04-21T13:13:26.163Z,19.70
2019-04-21T13:15:54.006Z,19.60
2019-04-21T13:18:22.808Z,19.80
2019-04-21T13:20:51.858Z,19.80
2019-04-21T13:23:20.913Z,19.60
2019-04-21T13:25:49.865Z,19.70
2019-04-21T13:28:18.719Z,19.70
2019-04-21T13:30:48.516Z,19.80
2019-04-21T13:33:17.169Z,19.60
2019-04-21T13:35:46.802Z,19.60
2019-04-21T13:38:25.256Z,19.70
2019-04-21T13:41:17.772Z,19.70
2019-04-21T13:43:35.029Z,19.30
2019-04-21T13:46:03.950Z,19.00
2019-04-21T13:48:32.792Z,18.70
2019-04-21T13:51:01.547Z,18.70
2019-04-21T13:53:31.108Z,18.80
2019-04-21T13:56:00.388Z,18.80
2019-04-21T13:58:30.360Z,18.60
2019-04-21T14:00:59.956Z,18.30
2019-04-21T14:03:29.242Z,18.40
2019-04-21T14:05:58.295Z,18.50
2019-04-21T14:08:27.376Z,18.50
2019-04-21T14:10:55.831Z,18.40
2019-04-21T14:13:24.647Z,18.40
2019-04-21T14:15:53.873Z,18.50
2019-04-21T14:18:22.722Z,18.60
2019-04-21T14:20:51.370Z,18.70
2019-04-21T14:23:28.633Z,18.60
2019-04-21T14:25:50.128Z,18.40
2019-04-21T14:28:19.894Z,18.40
2019-04-21T14:30:50.553Z,18.10
2019-04-21T14:33:20.436Z,18.10
2019-04-21T14:35:48.430Z,18.10
2019-04-21T14:38:16.827Z,18.20
2019-04-21T14:40:46.181Z,18.20
2019-04-21T14:43:14.639Z,18.30
2019-04-21T14:45:54.409Z,18.40
2019-04-21T14:48:41.229Z,18.50
2019-04-21T14:51:13.940Z,18.40
2019-04-21T14:53:47.810Z,18.40
2019-04-21T14:56:17.466Z,18.30
2019-04-21T14:58:46.845Z,18.30
2019-04-21T15:01:15.737Z,18.30
2019-04-21T15:03:44.068Z,18.30
2019-04-21T15:06:13.475Z,18.20
2019-04-21T15:08:42.932Z,18.20
2019-04-21T15:11:11.765Z,18.20
2019-04-21T15:13:41.760Z,18.30
2019-04-21T15:16:10.946Z,18.20
2019-04-21T15:18:40.909Z,18.00
2019-04-21T15:21:08.743Z,17.80
2019-04-21T15:23:38.235Z,17.80
2019-04-21T15:26:08.157Z,17.70
2019-04-21T15:28:37.905Z,17.60
2019-04-21T15:31:06.208Z,17.50
2019-04-21T15:33:34.946Z,17.50
2019-04-21T15:36:04.961Z,17.40
2019-04-21T15:38:33.983Z,17.30
2019-04-21T15:41:05.014Z,17.20
2019-04-21T15:43:33.479Z,17.20
2019-04-21T15:46:02.609Z,17.20
2019-04-21T15:48:31.232Z,17.20
2019-04-21T15:51:01.990Z,17.20
2019-04-21T15:53:31.951Z,17.20
2019-04-21T15:56:11.024Z,17.20
2019-04-21T15:58:52.570Z,17.10
2019-04-21T16:01:36.482Z,17.10
2019-04-21T16:04:06.574Z,17.00
2019-04-21T16:06:35.504Z,17.00
2019-04-21T16:09:08.263Z,16.90
2019-04-21T16:11:37.895Z,16.80
2019-04-21T16:14:07.930Z,16.80
2019-04-21T16:16:36.527Z,16.80
2019-04-21T16:19:06.122Z,16.80
2019-04-21T16:21:38.375Z,16.80
2019-04-21T16:24:06.619Z,16.70
2019-04-21T16:26:35.887Z,16.70
2019-04-21T16:29:04.999Z,16.60
2019-04-21T16:31:34.316Z,16.60
2019-04-21T16:34:03.101Z,16.50
2019-04-21T16:36:31.915Z,16.50
2019-04-21T16:39:01.721Z,16.40
2019-04-21T16:41:31.980Z,16.30
2019-04-21T16:44:00.990Z,16.30
2019-04-21T16:46:29.592Z,16.20
2019-04-21T16:48:58.097Z,16.10
2019-04-21T16:51:26.488Z,16.10
2019-04-21T16:53:59.865Z,16.00
2019-04-21T16:56:31.089Z,16.00
2019-04-21T16:59:10.510Z,15.90
2019-04-21T17:01:36.441Z,15.80
2019-04-21T17:04:06.519Z,15.70
2019-04-21T17:06:35.367Z,15.40
2019-04-21T17:09:05.885Z,15.10
2019-04-21T17:11:37.207Z,15.00
2019-04-21T17:14:05.638Z,14.90
2019-04-21T17:16:57.977Z,14.80
2019-04-21T17:19:13.623Z,14.70
2019-04-21T17:21:34.219Z,14.60
2019-04-21T17:24:04.343Z,14.50
2019-04-21T17:26:37.206Z,14.30
2019-04-21T17:29:04.740Z,14.20
2019-04-21T17:31:34.044Z,14.00
2019-04-21T17:34:10.059Z,13.90
2019-04-21T17:36:32.881Z,13.70
2019-04-21T17:39:02.230Z,13.70
2019-04-21T17:41:41.188Z,13.60
2019-04-21T17:44:02.432Z,13.50
2019-04-21T17:46:40.799Z,13.40
2019-04-21T17:49:03.200Z,13.10
2019-04-21T17:51:39.481Z,13.00
2019-04-21T17:54:13.558Z,12.80
2019-04-21T17:57:04.465Z,12.70
2019-04-21T17:59:43.254Z,12.60
2019-04-21T18:02:00.698Z,12.50
2019-04-21T18:04:42.652Z,12.40
2019-04-21T18:07:04.791Z,12.20
2019-04-21T18:09:45.405Z,12.00
2019-04-21T18:12:07.698Z,11.90
2019-04-21T18:14:22.127Z,11.80
2019-04-21T18:16:53.332Z,11.80
2019-04-21T18:19:26.002Z,11.80
2019-04-21T18:22:09.000Z,11.60
2019-04-21T18:24:50.270Z,11.60
2019-04-21T18:27:13.635Z,11.50
2019-04-21T18:29:42.363Z,11.50
2019-04-21T18:32:12.595Z,11.50
2019-04-21T18:34:48.718Z,11.50
2019-04-21T18:37:41.693Z,11.40
2019-04-21T18:40:13.663Z,11.40
2019-04-21T18:42:54.381Z,11.40
2019-04-21T18:45:48.018Z,11.30
2019-04-21T18:48:04.978Z,11.30
2019-04-21T18:50:30.334Z,11.40
2019-04-21T18:53:09.010Z,11.40
2019-04-21T18:55:35.493Z,11.40
2019-04-21T18:57:57.136Z,11.40
2019-04-21T19:00:31.354Z,11.40
2019-04-21T19:02:58.294Z,11.40
2019-04-21T19:05:29.387Z,11.50
2019-04-21T19:08:14.778Z,11.50
2019-04-21T19:10:47.954Z,11.60
2019-04-21T19:16:01.382Z,11.50
2019-04-21T19:18:36.636Z,11.50
2019-04-21T19:20:43.275Z,11.40
2019-04-21T19:23:25.786Z,11.40
2019-04-21T19:25:47.325Z,11.40
2019-04-21T19:28:15.164Z,11.40
2019-04-21T19:30:49.671Z,11.30
2019-04-21T19:33:10.214Z,11.30
2019-04-21T19:35:27.561Z,11.30
2019-04-21T19:38:01.187Z,11.30
2019-04-21T19:40:44.830Z,11.30
2019-04-21T19:43:03.598Z,11.30
2019-04-21T19:45:39.687Z,11.40
2019-04-21T19:48:15.311Z,11.40
2019-04-21T19:50:48.549Z,11.40
2019-04-21T19:53:05.348Z,11.40
2019-04-21T19:55:25.411Z,11.40
2019-04-21T19:57:54.779Z,11.30
2019-04-21T20:00:24.387Z,11.10
2019-04-21T20:02:56.634Z,11.00
2019-04-21T20:05:35.202Z,10.90
2019-04-21T20:08:11.798Z,10.80
2019-04-21T20:10:44.349Z,10.80
2019-04-21T20:13:14.771Z,10.80
2019-04-21T20:15:46.528Z,10.70
2019-04-21T20:18:08.678Z,10.60
2019-04-21T20:20:25.138Z,10.40
2019-04-21T20:22:54.243Z,10.40
2019-04-21T20:25:25.304Z,10.50
2019-04-21T20:28:01.584Z,10.50
2019-04-21T20:30:42.414Z,10.50
2019-04-21T20:33:39.197Z,10.50
2019-04-21T20:35:46.936Z,10.40
2019-04-21T20:38:06.435Z,10.20
2019-04-21T20:40:30.750Z,10.10
2019-04-21T20:43:11.317Z,10.00
2019-04-21T20:45:59.244Z,9.90
2019-04-21T20:47:54.589Z,9.90
2019-04-21T20:50:33.390Z,9.80
2019-04-21T20:53:11.003Z,9.80
2019-04-21T20:55:35.504Z,9.60
2019-04-21T20:58:04.252Z,9.30
2019-04-21T21:00:50.780Z,9.00
2019-04-21T21:03:12.794Z,8.90
2019-04-21T21:05:37.633Z,8.60
2019-04-21T21:08:15.019Z,8.40
2019-04-21T21:10:36.736Z,8.20
2019-04-21T21:13:14.851Z,8.00
2019-04-21T21:15:35.956Z,8.00
2019-04-21T21:18:15.594Z,7.90
2019-04-21T21:20:35.728Z,7.90
2019-04-21T21:23:05.229Z,8.00
2019-04-21T21:25:49.655Z,7.90
2019-04-21T21:28:01.274Z,7.90
2019-04-21T21:30:35.130Z,7.80
2019-04-21T21:33:11.382Z,7.70
2019-04-21T21:35:35.913Z,7.60
2019-04-21T21:38:13.485Z,7.60
2019-04-21T21:40:38.147Z,7.50
2019-04-21T21:42:53.252Z,7.60
2019-04-21T21:45:26.982Z,7.60
2019-04-21T21:48:16.148Z,7.60
2019-04-21T21:50:35.402Z,7.50
2019-04-21T21:53:05.821Z,7.50
2019-04-21T21:55:25.605Z,7.50
2019-04-21T21:58:01.127Z,7.60
2019-04-21T22:00:25.999Z,7.60
2019-04-21T22:02:56.646Z,7.50
2019-04-21T22:05:29.183Z,7.40
2019-04-21T22:07:54.349Z,7.40
2019-04-21T22:10:23.151Z,7.40
2019-04-21T22:12:59.794Z,7.30
2019-04-21T22:15:24.719Z,7.30
2019-04-21T22:18:09.116Z,7.30
2019-04-21T22:20:40.453Z,7.30
2019-04-21T22:22:59.650Z,7.20
2019-04-21T22:25:26.141Z,7.20
2019-04-21T22:27:50.781Z,7.20
2019-04-21T22:30:30.009Z,7.20
2019-04-21T22:32:59.857Z,7.30
2019-04-21T22:35:30.068Z,7.30
2019-04-21T22:38:11.832Z,7.30
2019-04-21T22:40:35.638Z,7.20
2019-04-21T22:43:04.910Z,7.10
2019-04-21T22:45:23.255Z,7.00
2019-04-21T22:47:52.141Z,6.90
2019-04-21T22:50:22.816Z,6.90
2019-04-21T22:52:58.050Z,6.80
2019-04-21T22:55:25.310Z,6.70
2019-04-21T22:57:53.256Z,6.60
2019-04-21T23:00:22.159Z,6.60
2019-04-21T23:02:53.993Z,6.60
2019-04-21T23:05:28.172Z,6.50
2019-04-21T23:07:58.108Z,6.50
2019-04-21T23:10:23.181Z,6.50
2019-04-21T23:12:52.158Z,6.40
2019-04-21T23:15:24.721Z,6.40
2019-04-21T23:18:08.978Z,6.30
2019-04-21T23:20:38.819Z,6.30
2019-04-21T23:23:12.088Z,6.20
2019-04-21T23:25:39.226Z,6.20
2019-04-21T23:28:08.829Z,6.20
2019-04-21T23:30:47.468Z,6.30
2019-04-21T23:32:59.696Z,6.40
2019-04-21T23:35:27.771Z,6.40
2019-04-21T23:37:57.993Z,6.40
2019-04-21T23:40:24.139Z,6.40
2019-04-21T23:42:53.288Z,6.30
2019-04-21T23:45:25.145Z,6.20
2019-04-21T23:48:07.015Z,6.10
2019-04-21T23:50:34.240Z,6.00
2019-04-21T23:52:51.570Z,5.90
2019-04-21T23:55:21.144Z,5.90
2019-04-21T23:57:50.691Z,5.90
